sensor_id;sensor_type;location;lat;lon;timestamp;pressure;altitude;pressure_sealevel;temperature;humidity
79123;BME280;68526;44.600;26.032;2023-04-07T00:00:05;100167.69;;;4.55;77.96
79123;BME280;68526;44.600;26.032;2023-04-07T00:00:22;100166.63;;;4.57;78.42
79123;BME280;68526;44.600;26.032;2023-04-07T00:00:38;100167.69;;;4.55;77.99
79123;BME280;68526;44.600;26.032;2023-04-07T00:00:54;100162.84;;;4.52;78.25
79123;BME280;68526;44.600;26.032;2023-04-07T00:01:10;100162.56;;;4.54;78.24
79123;BME280;68526;44.600;26.032;2023-04-07T00:01:26;100166.66;;;4.51;78.30
79123;BME280;68526;44.600;26.032;2023-04-07T00:01:43;100165.31;;;4.49;78.66
79123;BME280;68526;44.600;26.032;2023-04-07T00:01:59;100171.84;;;4.48;78.37
79123;BME280;68526;44.600;26.032;2023-04-07T00:02:15;100164.22;;;4.50;78.55
79123;BME280;68526;44.600;26.032;2023-04-07T00:02:31;100167.47;;;4.52;78.54
79123;BME280;68526;44.600;26.032;2023-04-07T00:02:47;100165.56;;;4.52;78.93
79123;BME280;68526;44.600;26.032;2023-04-07T00:03:03;100170.69;;;4.54;78.90
79123;BME280;68526;44.600;26.032;2023-04-07T00:03:21;100170.41;;;4.55;78.59
79123;BME280;68526;44.600;26.032;2023-04-07T00:03:37;100158.50;;;4.57;78.53
79123;BME280;68526;44.600;26.032;2023-04-07T00:03:55;100163.34;;;4.60;78.42
79123;BME280;68526;44.600;26.032;2023-04-07T00:04:11;100167.66;;;4.61;78.50
79123;BME280;68526;44.600;26.032;2023-04-07T00:04:26;100165.50;;;4.63;78.44
79123;BME280;68526;44.600;26.032;2023-04-07T00:04:44;100157.91;;;4.60;78.75
79123;BME280;68526;44.600;26.032;2023-04-07T00:04:59;100161.94;;;4.62;78.40
79123;BME280;68526;44.600;26.032;2023-04-07T00:05:17;100155.72;;;4.62;78.56
79123;BME280;68526;44.600;26.032;2023-04-07T00:05:33;100165.19;;;4.64;78.79
79123;BME280;68526;44.600;26.032;2023-04-07T00:05:49;100164.13;;;4.60;78.38
79123;BME280;68526;44.600;26.032;2023-04-07T00:06:05;100158.19;;;4.58;78.52
79123;BME280;68526;44.600;26.032;2023-04-07T00:06:21;100165.53;;;4.58;78.27
79123;BME280;68526;44.600;26.032;2023-04-07T00:06:37;100164.44;;;4.59;78.58
79123;BME280;68526;44.600;26.032;2023-04-07T00:06:54;100158.19;;;4.58;78.37
79123;BME280;68526;44.600;26.032;2023-04-07T00:07:10;100162.53;;;4.59;78.25
79123;BME280;68526;44.600;26.032;2023-04-07T00:07:26;100163.59;;;4.63;78.76
79123;BME280;68526;44.600;26.032;2023-04-07T00:07:42;100161.69;;;4.64;78.33
79123;BME280;68526;44.600;26.032;2023-04-07T00:07:58;100159.53;;;4.61;78.44
79123;BME280;68526;44.600;26.032;2023-04-07T00:08:14;100166.03;;;4.60;78.43
79123;BME280;68526;44.600;26.032;2023-04-07T00:08:31;100166.34;;;4.58;78.54
79123;BME280;68526;44.600;26.032;2023-04-07T00:08:46;100160.91;;;4.58;78.18
79123;BME280;68526;44.600;26.032;2023-04-07T00:09:02;100163.06;;;4.56;78.47
79123;BME280;68526;44.600;26.032;2023-04-07T00:09:18;100161.47;;;4.55;78.44
79123;BME280;68526;44.600;26.032;2023-04-07T00:09:34;100162.28;;;4.55;78.56
79123;BME280;68526;44.600;26.032;2023-04-07T00:09:51;100161.22;;;4.57;78.59
79123;BME280;68526;44.600;26.032;2023-04-07T00:10:07;100162.81;;;4.58;78.56
79123;BME280;68526;44.600;26.032;2023-04-07T00:10:24;100156.59;;;4.57;78.31
79123;BME280;68526;44.600;26.032;2023-04-07T00:10:40;100167.44;;;4.57;78.65
79123;BME280;68526;44.600;26.032;2023-04-07T00:10:56;100157.66;;;4.56;78.69
79123;BME280;68526;44.600;26.032;2023-04-07T00:11:12;100162.00;;;4.57;78.53
79123;BME280;68526;44.600;26.032;2023-04-07T00:11:29;100165.00;;;4.55;78.39
79123;BME280;68526;44.600;26.032;2023-04-07T00:11:45;100159.00;;;4.59;78.57
79123;BME280;68526;44.600;26.032;2023-04-07T00:12:03;100164.44;;;4.59;78.41
79123;BME280;68526;44.600;26.032;2023-04-07T00:12:19;100161.72;;;4.59;78.52
79123;BME280;68526;44.600;26.032;2023-04-07T00:12:35;100160.63;;;4.60;78.38
79123;BME280;68526;44.600;26.032;2023-04-07T00:12:51;100158.41;;;4.62;78.46
79123;BME280;68526;44.600;26.032;2023-04-07T00:13:07;100158.97;;;4.64;78.20
79123;BME280;68526;44.600;26.032;2023-04-07T00:13:23;100160.88;;;4.63;78.16
79123;BME280;68526;44.600;26.032;2023-04-07T00:13:39;100160.59;;;4.65;78.44
79123;BME280;68526;44.600;26.032;2023-04-07T00:13:55;100157.88;;;4.65;78.17
79123;BME280;68526;44.600;26.032;2023-04-07T00:14:11;100154.84;;;4.66;78.10
79123;BME280;68526;44.600;26.032;2023-04-07T00:14:27;100163.59;;;4.63;78.33
79123;BME280;68526;44.600;26.032;2023-04-07T00:14:43;100167.91;;;4.64;78.62
79123;BME280;68526;44.600;26.032;2023-04-07T00:14:59;100162.78;;;4.63;78.40
79123;BME280;68526;44.600;26.032;2023-04-07T00:15:15;100159.53;;;4.61;78.70
79123;BME280;68526;44.600;26.032;2023-04-07T00:15:31;100153.28;;;4.60;78.58
79123;BME280;68526;44.600;26.032;2023-04-07T00:15:47;100164.41;;;4.64;78.55
79123;BME280;68526;44.600;26.032;2023-04-07T00:16:03;100159.22;;;4.62;78.45
79123;BME280;68526;44.600;26.032;2023-04-07T00:16:20;100158.97;;;4.64;78.50
79123;BME280;68526;44.600;26.032;2023-04-07T00:16:36;100161.69;;;4.64;78.61
79123;BME280;68526;44.600;26.032;2023-04-07T00:16:52;100165.75;;;4.61;78.38
79123;BME280;68526;44.600;26.032;2023-04-07T00:17:07;100164.44;;;4.59;78.16
79123;BME280;68526;44.600;26.032;2023-04-07T00:17:23;100163.63;;;4.58;78.08
79123;BME280;68526;44.600;26.032;2023-04-07T00:17:39;100163.06;;;4.56;78.46
79123;BME280;68526;44.600;26.032;2023-04-07T00:17:55;100167.66;;;4.61;78.20
79123;BME280;68526;44.600;26.032;2023-04-07T00:18:12;100162.28;;;4.55;78.35
79123;BME280;68526;44.600;26.032;2023-04-07T00:18:28;100163.03;;;4.61;78.70
79123;BME280;68526;44.600;26.032;2023-04-07T00:18:44;100153.06;;;4.57;78.63
79123;BME280;68526;44.600;26.032;2023-04-07T00:18:59;100166.84;;;4.60;78.66
79123;BME280;68526;44.600;26.032;2023-04-07T00:19:15;100164.94;;;4.61;78.65
79123;BME280;68526;44.600;26.032;2023-04-07T00:19:31;100163.34;;;4.60;78.59
79123;BME280;68526;44.600;26.032;2023-04-07T00:19:50;100162.78;;;4.63;78.98
79123;BME280;68526;44.600;26.032;2023-04-07T00:20:06;100167.63;;;4.66;78.72
79123;BME280;68526;44.600;26.032;2023-04-07T00:20:23;100163.28;;;4.65;78.96
79123;BME280;68526;44.600;26.032;2023-04-07T00:20:39;100171.44;;;4.65;78.54
79123;BME280;68526;44.600;26.032;2023-04-07T00:20:54;100169.22;;;4.67;78.72
79123;BME280;68526;44.600;26.032;2023-04-07T00:21:10;100164.91;;;4.66;78.48
79123;BME280;68526;44.600;26.032;2023-04-07T00:21:27;100155.44;;;4.63;78.55
79123;BME280;68526;44.600;26.032;2023-04-07T00:21:43;100169.78;;;4.69;78.97
79123;BME280;68526;44.600;26.032;2023-04-07T00:21:59;100167.31;;;4.67;78.77
79123;BME280;68526;44.600;26.032;2023-04-07T00:22:15;100160.81;;;4.68;78.92
79123;BME280;68526;44.600;26.032;2023-04-07T00:22:30;100161.63;;;4.69;78.68
79123;BME280;68526;44.600;26.032;2023-04-07T00:22:47;100162.72;;;4.68;78.67
79123;BME280;68526;44.600;26.032;2023-04-07T00:23:03;100172.25;;;4.65;78.42
79123;BME280;68526;44.600;26.032;2023-04-07T00:23:19;100178.19;;;4.67;78.78
79123;BME280;68526;44.600;26.032;2023-04-07T00:23:35;100172.75;;;4.67;78.54
79123;BME280;68526;44.600;26.032;2023-04-07T00:23:51;100171.72;;;4.63;76.84
79123;BME280;68526;44.600;26.032;2023-04-07T00:24:07;100168.25;;;4.58;75.12
79123;BME280;68526;44.600;26.032;2023-04-07T00:24:23;100169.84;;;4.59;75.40
79123;BME280;68526;44.600;26.032;2023-04-07T00:24:40;100169.56;;;4.60;74.79
79123;BME280;68526;44.600;26.032;2023-04-07T00:24:55;100165.25;;;4.59;73.42
79123;BME280;68526;44.600;26.032;2023-04-07T00:25:11;100175.50;;;4.62;72.53
79123;BME280;68526;44.600;26.032;2023-04-07T00:25:27;100168.22;;;4.63;71.05
79123;BME280;68526;44.600;26.032;2023-04-07T00:25:43;100167.09;;;4.64;70.99
79123;BME280;68526;44.600;26.032;2023-04-07T00:25:59;100169.53;;;4.65;70.94
79123;BME280;68526;44.600;26.032;2023-04-07T00:26:16;100162.50;;;4.64;70.80
79123;BME280;68526;44.600;26.032;2023-04-07T00:26:31;100167.63;;;4.66;69.74
79123;BME280;68526;44.600;26.032;2023-04-07T00:26:47;100171.44;;;4.65;68.83
79123;BME280;68526;44.600;26.032;2023-04-07T00:27:03;100166.53;;;4.67;68.43
79123;BME280;68526;44.600;26.032;2023-04-07T00:27:19;100161.69;;;4.64;67.58
79123;BME280;68526;44.600;26.032;2023-04-07T00:27:37;100156.25;;;4.64;66.91
79123;BME280;68526;44.600;26.032;2023-04-07T00:27:53;100160.59;;;4.65;67.15
79123;BME280;68526;44.600;26.032;2023-04-07T00:28:09;100160.28;;;4.66;67.74
79123;BME280;68526;44.600;26.032;2023-04-07T00:28:25;100162.44;;;4.69;67.61
79123;BME280;68526;44.600;26.032;2023-04-07T00:28:41;100170.28;;;4.71;67.50
79123;BME280;68526;44.600;26.032;2023-04-07T00:28:58;100157.81;;;4.70;67.03
79123;BME280;68526;44.600;26.032;2023-04-07T00:29:13;100161.63;;;4.69;66.26
79123;BME280;68526;44.600;26.032;2023-04-07T00:29:29;100155.63;;;4.72;66.70
79123;BME280;68526;44.600;26.032;2023-04-07T00:29:45;100158.84;;;4.74;66.45
79123;BME280;68526;44.600;26.032;2023-04-07T00:30:01;100160.81;;;4.68;65.38
79123;BME280;68526;44.600;26.032;2023-04-07T00:30:17;100154.84;;;4.66;65.09
79123;BME280;68526;44.600;26.032;2023-04-07T00:30:34;100163.00;;;4.66;64.19
79123;BME280;68526;44.600;26.032;2023-04-07T00:30:50;100161.91;;;4.67;64.12
79123;BME280;68526;44.600;26.032;2023-04-07T00:31:06;100161.09;;;4.67;64.45
79123;BME280;68526;44.600;26.032;2023-04-07T00:31:22;100170.03;;;4.67;64.52
79123;BME280;68526;44.600;26.032;2023-04-07T00:31:37;100161.38;;;4.65;64.05
79123;BME280;68526;44.600;26.032;2023-04-07T00:31:53;100154.06;;;4.66;64.01
79123;BME280;68526;44.600;26.032;2023-04-07T00:32:09;100157.88;;;4.65;64.01
79123;BME280;68526;44.600;26.032;2023-04-07T00:32:26;100164.91;;;4.66;63.93
79123;BME280;68526;44.600;26.032;2023-04-07T00:32:42;100171.94;;;4.67;64.66
79123;BME280;68526;44.600;26.032;2023-04-07T00:32:58;100173.00;;;4.71;64.56
79123;BME280;68526;44.600;26.032;2023-04-07T00:33:13;100162.44;;;4.69;64.03
79123;BME280;68526;44.600;26.032;2023-04-07T00:33:29;100161.06;;;4.72;63.85
79123;BME280;68526;44.600;26.032;2023-04-07T00:33:46;100160.25;;;4.71;63.41
79123;BME280;68526;44.600;26.032;2023-04-07T00:34:03;100166.47;;;4.72;63.69
79123;BME280;68526;44.600;26.032;2023-04-07T00:34:19;100167.56;;;4.71;63.45
79123;BME280;68526;44.600;26.032;2023-04-07T00:34:35;100163.25;;;4.70;62.90
79123;BME280;68526;44.600;26.032;2023-04-07T00:34:52;100160.00;;;4.68;62.45
79123;BME280;68526;44.600;26.032;2023-04-07T00:35:09;100170.63;;;4.64;61.54
79123;BME280;68526;44.600;26.032;2023-04-07T00:35:25;100168.72;;;4.65;62.29
79123;BME280;68526;44.600;26.032;2023-04-07T00:35:41;100165.50;;;4.63;61.87
79123;BME280;68526;44.600;26.032;2023-04-07T00:35:57;100159.56;;;4.55;61.34
79123;BME280;68526;44.600;26.032;2023-04-07T00:36:13;100169.09;;;4.53;61.20
79123;BME280;68526;44.600;26.032;2023-04-07T00:36:29;100163.66;;;4.53;61.17
79123;BME280;68526;44.600;26.032;2023-04-07T00:36:46;100168.28;;;4.52;61.09
79123;BME280;68526;44.600;26.032;2023-04-07T00:37:06;100167.19;;;4.53;61.41
79123;BME280;68526;44.600;26.032;2023-04-07T00:37:22;100161.25;;;4.51;60.96
79123;BME280;68526;44.600;26.032;2023-04-07T00:37:39;100158.75;;;4.55;61.02
79123;BME280;68526;44.600;26.032;2023-04-07T00:37:55;100166.38;;;4.53;60.94
79123;BME280;68526;44.600;26.032;2023-04-07T00:38:12;100156.84;;;4.55;61.41
79123;BME280;68526;44.600;26.032;2023-04-07T00:38:28;100161.22;;;4.57;61.70
79123;BME280;68526;44.600;26.032;2023-04-07T00:38:44;100162.28;;;4.55;61.39
79123;BME280;68526;44.600;26.032;2023-04-07T00:39:00;100162.81;;;4.58;61.70
79123;BME280;68526;44.600;26.032;2023-04-07T00:39:15;100158.50;;;4.57;60.57
79123;BME280;68526;44.600;26.032;2023-04-07T00:39:32;100161.22;;;4.57;60.95
79123;BME280;68526;44.600;26.032;2023-04-07T00:39:48;100163.63;;;4.58;60.79
79123;BME280;68526;44.600;26.032;2023-04-07T00:40:06;100165.25;;;4.59;60.70
79123;BME280;68526;44.600;26.032;2023-04-07T00:40:22;100163.06;;;4.56;60.71
79123;BME280;68526;44.600;26.032;2023-04-07T00:40:38;100169.59;;;4.55;60.74
79123;BME280;68526;44.600;26.032;2023-04-07T00:40:56;100164.75;;;4.52;60.82
79123;BME280;68526;44.600;26.032;2023-04-07T00:41:12;100161.47;;;4.55;61.26
79123;BME280;68526;44.600;26.032;2023-04-07T00:41:28;100161.47;;;4.55;61.38
79123;BME280;68526;44.600;26.032;2023-04-07T00:41:44;100162.28;;;4.55;60.73
79123;BME280;68526;44.600;26.032;2023-04-07T00:42:02;100162.00;;;4.57;61.21
79123;BME280;68526;44.600;26.032;2023-04-07T00:42:19;100170.16;;;4.57;60.98
79123;BME280;68526;44.600;26.032;2023-04-07T00:42:35;100159.03;;;4.53;61.29
79123;BME280;68526;44.600;26.032;2023-04-07T00:42:51;100159.56;;;4.55;61.16
79123;BME280;68526;44.600;26.032;2023-04-07T00:43:07;100165.00;;;4.55;61.25
79123;BME280;68526;44.600;26.032;2023-04-07T00:43:23;100158.50;;;4.57;60.86
79123;BME280;68526;44.600;26.032;2023-04-07T00:43:40;100161.47;;;4.55;60.84
79123;BME280;68526;44.600;26.032;2023-04-07T00:43:55;100165.56;;;4.52;60.56
79123;BME280;68526;44.600;26.032;2023-04-07T00:44:13;100160.94;;;4.53;60.95
79123;BME280;68526;44.600;26.032;2023-04-07T00:44:29;100167.44;;;4.57;61.15
79123;BME280;68526;44.600;26.032;2023-04-07T00:44:45;100165.78;;;4.56;60.83
79123;BME280;68526;44.600;26.032;2023-04-07T00:45:01;100162.06;;;4.52;60.63
79123;BME280;68526;44.600;26.032;2023-04-07T00:45:16;100163.97;;;4.51;61.08
79123;BME280;68526;44.600;26.032;2023-04-07T00:45:32;100163.41;;;4.49;60.44
79123;BME280;68526;44.600;26.032;2023-04-07T00:45:49;100161.78;;;4.48;60.98
79123;BME280;68526;44.600;26.032;2023-04-07T00:46:05;100159.59;;;4.50;61.03
79123;BME280;68526;44.600;26.032;2023-04-07T00:46:21;100166.41;;;4.48;60.49
79123;BME280;68526;44.600;26.032;2023-04-07T00:46:38;100165.59;;;4.47;60.87
79123;BME280;68526;44.600;26.032;2023-04-07T00:46:54;100158.28;;;4.48;61.09
79123;BME280;68526;44.600;26.032;2023-04-07T00:47:10;100156.09;;;4.50;61.36
79123;BME280;68526;44.600;26.032;2023-04-07T00:47:27;100161.28;;;4.46;61.28
79123;BME280;68526;44.600;26.032;2023-04-07T00:47:43;100154.78;;;4.42;60.99
79123;BME280;68526;44.600;26.032;2023-04-07T00:48:00;100164.22;;;4.50;60.84
79123;BME280;68526;44.600;26.032;2023-04-07T00:48:16;100153.66;;;4.48;60.85
79123;BME280;68526;44.600;26.032;2023-04-07T00:48:32;100163.41;;;4.49;60.89
79123;BME280;68526;44.600;26.032;2023-04-07T00:48:48;100159.09;;;4.48;60.81
79123;BME280;68526;44.600;26.032;2023-04-07T00:49:05;100162.59;;;4.49;61.46
79123;BME280;68526;44.600;26.032;2023-04-07T00:49:21;100162.31;;;4.50;61.05
79123;BME280;68526;44.600;26.032;2023-04-07T00:49:37;100166.38;;;4.53;61.34
79123;BME280;68526;44.600;26.032;2023-04-07T00:49:54;100157.44;;;4.52;60.96
79123;BME280;68526;44.600;26.032;2023-04-07T00:50:10;100173.75;;;4.47;60.68
79123;BME280;68526;44.600;26.032;2023-04-07T00:50:27;100161.56;;;4.45;61.07
79123;BME280;68526;44.600;26.032;2023-04-07T00:50:44;100165.31;;;4.49;61.31
79123;BME280;68526;44.600;26.032;2023-04-07T00:51:00;100162.09;;;4.47;60.77
79123;BME280;68526;44.600;26.032;2023-04-07T00:51:17;100169.41;;;4.46;60.99
79123;BME280;68526;44.600;26.032;2023-04-07T00:51:34;100164.50;;;4.48;61.02
79123;BME280;68526;44.600;26.032;2023-04-07T00:51:51;100168.88;;;4.44;60.64
79123;BME280;68526;44.600;26.032;2023-04-07T00:52:08;100159.94;;;4.44;61.19
79123;BME280;68526;44.600;26.032;2023-04-07T00:52:26;100163.19;;;4.46;61.08
79123;BME280;68526;44.600;26.032;2023-04-07T00:52:44;100167.22;;;4.48;61.36
79123;BME280;68526;44.600;26.032;2023-04-07T00:53:00;100166.41;;;4.48;61.29
79123;BME280;68526;44.600;26.032;2023-04-07T00:53:17;100172.66;;;4.48;61.23
79123;BME280;68526;44.600;26.032;2023-04-07T00:53:34;100158.28;;;4.48;61.56
79123;BME280;68526;44.600;26.032;2023-04-07T00:53:49;100172.13;;;4.46;61.46
79123;BME280;68526;44.600;26.032;2023-04-07T00:54:05;100171.03;;;4.47;61.16
79123;BME280;68526;44.600;26.032;2023-04-07T00:54:22;100157.75;;;4.46;60.80
79123;BME280;68526;44.600;26.032;2023-04-07T00:54:41;100164.00;;;4.46;60.90
79123;BME280;68526;44.600;26.032;2023-04-07T00:54:58;100167.00;;;4.45;61.06
79123;BME280;68526;44.600;26.032;2023-04-07T00:55:15;100156.41;;;4.43;61.26
79123;BME280;68526;44.600;26.032;2023-04-07T00:55:31;100167.25;;;4.43;61.05
79123;BME280;68526;44.600;26.032;2023-04-07T00:55:47;100159.94;;;4.44;60.72
79123;BME280;68526;44.600;26.032;2023-04-07T00:56:03;100163.75;;;4.43;61.01
79123;BME280;68526;44.600;26.032;2023-04-07T00:56:19;100160.75;;;4.44;60.76
79123;BME280;68526;44.600;26.032;2023-04-07T00:56:35;100156.41;;;4.43;60.60
79123;BME280;68526;44.600;26.032;2023-04-07T00:56:52;100160.50;;;4.41;60.82
79123;BME280;68526;44.600;26.032;2023-04-07T00:57:08;100167.56;;;4.42;60.77
79123;BME280;68526;44.600;26.032;2023-04-07T00:57:24;100168.09;;;4.39;61.51
79123;BME280;68526;44.600;26.032;2023-04-07T00:57:41;100160.81;;;4.39;61.21
79123;BME280;68526;44.600;26.032;2023-04-07T00:57:57;100160.50;;;4.41;61.56
79123;BME280;68526;44.600;26.032;2023-04-07T00:58:13;100152.09;;;4.42;61.48
79123;BME280;68526;44.600;26.032;2023-04-07T00:58:29;100165.94;;;4.41;61.28
79123;BME280;68526;44.600;26.032;2023-04-07T00:58:44;100154.00;;;4.42;61.44
79123;BME280;68526;44.600;26.032;2023-04-07T00:59:03;100158.88;;;4.45;61.38
79123;BME280;68526;44.600;26.032;2023-04-07T00:59:19;100132.97;;;4.23;61.41
79123;BME280;68526;44.600;26.032;2023-04-07T00:59:36;100167.56;;;4.42;61.31
79123;BME280;68526;44.600;26.032;2023-04-07T00:59:52;100162.69;;;4.39;61.65
79123;BME280;68526;44.600;26.032;2023-04-07T01:00:09;100159.97;;;4.39;61.42
79123;BME280;68526;44.600;26.032;2023-04-07T01:00:26;100164.03;;;4.41;61.45
79123;BME280;68526;44.600;26.032;2023-04-07T01:00:48;100161.31;;;4.41;61.71
79123;BME280;68526;44.600;26.032;2023-04-07T01:01:08;100162.41;;;4.40;61.59
79123;BME280;68526;44.600;26.032;2023-04-07T01:01:29;100167.84;;;4.40;61.38
79123;BME280;68526;44.600;26.032;2023-04-07T01:01:49;100160.50;;;4.41;61.12
79123;BME280;68526;44.600;26.032;2023-04-07T01:02:12;100166.22;;;4.39;61.18
79123;BME280;68526;44.600;26.032;2023-04-07T01:02:33;100159.44;;;4.37;61.08
79123;BME280;68526;44.600;26.032;2023-04-07T01:02:55;100166.22;;;4.39;61.73
79123;BME280;68526;44.600;26.032;2023-04-07T01:03:17;100165.69;;;4.37;61.50
79123;BME280;68526;44.600;26.032;2023-04-07T01:03:41;100163.00;;;4.32;60.97
79123;BME280;68526;44.600;26.032;2023-04-07T01:04:04;100158.69;;;4.31;60.83
79123;BME280;68526;44.600;26.032;2023-04-07T01:04:30;100156.78;;;4.32;60.96
79123;BME280;68526;44.600;26.032;2023-04-07T01:04:50;100161.34;;;4.36;61.48
79123;BME280;68526;44.600;26.032;2023-04-07T01:05:15;100163.25;;;4.36;61.28
79123;BME280;68526;44.600;26.032;2023-04-07T01:05:40;100163.56;;;4.34;61.29
79123;BME280;68526;44.600;26.032;2023-04-07T01:06:00;100159.22;;;4.33;61.45
79123;BME280;68526;44.600;26.032;2023-04-07T01:06:17;100158.13;;;4.34;61.79
79123;BME280;68526;44.600;26.032;2023-04-07T01:06:43;100157.06;;;4.30;61.45
79123;BME280;68526;44.600;26.032;2023-04-07T01:07:05;100154.88;;;4.32;61.68
79123;BME280;68526;44.600;26.032;2023-04-07T01:07:33;100161.09;;;4.33;61.94
79123;BME280;68526;44.600;26.032;2023-04-07T01:07:57;100161.09;;;4.33;61.46
79123;BME280;68526;44.600;26.032;2023-04-07T01:08:20;100158.13;;;4.34;61.79
79123;BME280;68526;44.600;26.032;2023-04-07T01:08:44;100154.06;;;4.32;61.95
79123;BME280;68526;44.600;26.032;2023-04-07T01:09:04;100158.94;;;4.35;61.77
79123;BME280;68526;44.600;26.032;2023-04-07T01:09:27;100164.06;;;4.36;62.06
79123;BME280;68526;44.600;26.032;2023-04-07T01:09:47;100157.03;;;4.35;61.51
79123;BME280;68526;44.600;26.032;2023-04-07T01:10:13;100156.78;;;4.32;61.50
79123;BME280;68526;44.600;26.032;2023-04-07T01:10:36;100155.66;;;4.33;61.76
79123;BME280;68526;44.600;26.032;2023-04-07T01:11:03;100157.56;;;4.32;61.45
79123;BME280;68526;44.600;26.032;2023-04-07T01:11:24;100155.16;;;4.31;61.43
79123;BME280;68526;44.600;26.032;2023-04-07T01:11:46;100157.88;;;4.31;61.90
79123;BME280;68526;44.600;26.032;2023-04-07T01:12:09;100156.78;;;4.32;62.02
79123;BME280;68526;44.600;26.032;2023-04-07T01:12:33;100157.88;;;4.31;61.59
79123;BME280;68526;44.600;26.032;2023-04-07T01:12:56;100158.72;;;4.26;62.00
79123;BME280;68526;44.600;26.032;2023-04-07T01:13:21;100159.81;;;4.25;61.65
79123;BME280;68526;44.600;26.032;2023-04-07T01:13:42;100156.28;;;4.24;61.52
79123;BME280;68526;44.600;26.032;2023-04-07T01:14:00;100159.81;;;4.25;61.57
79123;BME280;68526;44.600;26.032;2023-04-07T01:14:17;100157.69;;;4.22;61.46
79123;BME280;68526;44.600;26.032;2023-04-07T01:14:40;100158.75;;;4.21;61.48
79123;BME280;68526;44.600;26.032;2023-04-07T01:14:59;100159.28;;;4.23;61.33
79123;BME280;68526;44.600;26.032;2023-04-07T01:15:20;100165.81;;;4.22;61.46
79123;BME280;68526;44.600;26.032;2023-04-07T01:15:38;100162.00;;;4.23;61.75
79123;BME280;68526;44.600;26.032;2023-04-07T01:15:57;100159.81;;;4.25;61.68
79123;BME280;68526;44.600;26.032;2023-04-07T01:16:21;100162.00;;;4.23;61.61
79123;BME280;68526;44.600;26.032;2023-04-07T01:16:41;100158.19;;;4.24;61.96
79123;BME280;68526;44.600;26.032;2023-04-07T01:16:59;100169.56;;;4.26;61.97
79123;BME280;68526;44.600;26.032;2023-04-07T01:17:18;100162.78;;;4.28;62.04
79123;BME280;68526;44.600;26.032;2023-04-07T01:17:39;100163.59;;;4.29;62.34
79123;BME280;68526;44.600;26.032;2023-04-07T01:18:02;100167.09;;;4.29;62.28
79123;BME280;68526;44.600;26.032;2023-04-07T01:18:25;100157.34;;;4.28;61.92
79123;BME280;68526;44.600;26.032;2023-04-07T01:18:43;100162.19;;;4.32;61.77
79123;BME280;68526;44.600;26.032;2023-04-07T01:19:11;100159.50;;;4.26;62.02
79123;BME280;68526;44.600;26.032;2023-04-07T01:19:32;100153.28;;;4.26;61.86
79123;BME280;68526;44.600;26.032;2023-04-07T01:19:54;100161.97;;;4.28;61.95
79123;BME280;68526;44.600;26.032;2023-04-07T01:20:16;100153.84;;;4.28;62.46
79123;BME280;68526;44.600;26.032;2023-04-07T01:20:36;100154.34;;;4.30;62.17
79123;BME280;68526;44.600;26.032;2023-04-07T01:20:55;100160.06;;;4.28;62.26
79123;BME280;68526;44.600;26.032;2023-04-07T01:21:16;100155.44;;;4.29;62.14
79123;BME280;68526;44.600;26.032;2023-04-07T01:21:34;100158.16;;;4.29;61.83
79123;BME280;68526;44.600;26.032;2023-04-07T01:21:53;100161.97;;;4.28;61.88
79123;BME280;68526;44.600;26.032;2023-04-07T01:22:14;100164.38;;;4.29;62.12
79123;BME280;68526;44.600;26.032;2023-04-07T01:22:32;100162.50;;;4.30;62.28
79123;BME280;68526;44.600;26.032;2023-04-07T01:22:56;100161.72;;;4.24;61.90
79123;BME280;68526;44.600;26.032;2023-04-07T01:23:22;100154.38;;;4.25;61.34
79123;BME280;68526;44.600;26.032;2023-04-07T01:23:51;100135.25;;;4.11;61.62
79123;BME280;68526;44.600;26.032;2023-04-07T01:24:33;100156.88;;;4.21;61.45
79123;BME280;68526;44.600;26.032;2023-04-07T01:25:11;100158.22;;;4.19;61.41
79123;BME280;68526;44.600;26.032;2023-04-07T01:25:43;100162.03;;;4.18;61.55
79123;BME280;68526;44.600;26.032;2023-04-07T01:26:16;100155.28;;;4.15;61.63
79123;BME280;68526;44.600;26.032;2023-04-07T01:26:34;100163.13;;;4.17;62.04
79123;BME280;68526;44.600;26.032;2023-04-07T01:26:51;100160.41;;;4.17;62.15
79123;BME280;68526;44.600;26.032;2023-04-07T01:27:20;100158.50;;;4.17;62.14
79123;BME280;68526;44.600;26.032;2023-04-07T01:27:42;100161.78;;;4.14;62.16
79123;BME280;68526;44.600;26.032;2023-04-07T01:28:14;100159.34;;;4.13;61.93
79123;BME280;68526;44.600;26.032;2023-04-07T01:29:31;100151.81;;;4.10;62.19
79123;BME280;68526;44.600;26.032;2023-04-07T01:29:51;100159.66;;;4.11;62.06
79123;BME280;68526;44.600;26.032;2023-04-07T01:30:11;100154.75;;;4.13;62.40
79123;BME280;68526;44.600;26.032;2023-04-07T01:30:28;100155.31;;;4.10;61.92
79123;BME280;68526;44.600;26.032;2023-04-07T01:30:46;100157.78;;;4.07;62.06
79123;BME280;68526;44.600;26.032;2023-04-07T01:31:02;100159.13;;;4.09;62.07
79123;BME280;68526;44.600;26.032;2023-04-07T01:31:21;100155.88;;;4.07;62.11
79123;BME280;68526;44.600;26.032;2023-04-07T01:31:39;100154.53;;;4.05;62.02
79123;BME280;68526;44.600;26.032;2023-04-07T01:31:57;100160.47;;;4.07;62.05
79123;BME280;68526;44.600;26.032;2023-04-07T01:32:17;100160.19;;;4.08;62.02
79123;BME280;68526;44.600;26.032;2023-04-07T01:32:36;100155.88;;;4.07;62.33
79123;BME280;68526;44.600;26.032;2023-04-07T01:32:54;100155.56;;;4.09;62.43
79123;BME280;68526;44.600;26.032;2023-04-07T01:33:13;100153.41;;;4.11;62.02
79123;BME280;68526;44.600;26.032;2023-04-07T01:33:31;100155.56;;;4.09;61.98
79123;BME280;68526;44.600;26.032;2023-04-07T01:33:48;100159.66;;;4.06;62.15
79123;BME280;68526;44.600;26.032;2023-04-07T01:34:05;100162.91;;;4.08;62.09
79123;BME280;68526;44.600;26.032;2023-04-07T01:34:26;100155.56;;;4.09;62.35
79123;BME280;68526;44.600;26.032;2023-04-07T01:34:44;100156.13;;;4.11;62.39